createdAt,value
2023-03-05T00:03:29.287Z,0.87
2023-03-05T00:08:31.673Z,0.82
2023-03-05T00:13:34.574Z,0.70
2023-03-05T00:18:36.828Z,0.69
2023-03-05T00:23:38.677Z,0.62
2023-03-05T00:28:40.566Z,0.70
2023-03-05T00:33:42.729Z,0.68
2023-03-05T00:38:44.531Z,0.72
2023-03-05T00:43:46.872Z,0.63
2023-03-05T00:48:48.838Z,0.52
2023-03-05T00:53:51.127Z,0.39
2023-03-05T00:58:53.485Z,0.29
2023-03-05T01:03:59.641Z,0.24
2023-03-05T01:09:01.517Z,0.26
2023-03-05T01:14:03.408Z,0.17
2023-03-05T01:19:05.348Z,0.12
2023-03-05T01:24:07.872Z,0.08
2023-03-05T01:29:12.115Z,0.12
2023-03-05T01:34:14.168Z,0.14
2023-03-05T01:39:17.142Z,0.13
2023-03-05T01:44:28.575Z,0.10
2023-03-05T01:49:36.519Z,0.10
2023-03-05T01:54:49.749Z,0.01
2023-03-05T01:59:55.767Z,0.02
2023-03-05T02:05:02.518Z,-0.02
2023-03-05T02:10:16.926Z,-0.10
2023-03-05T02:15:19.280Z,0.01
2023-03-05T02:20:25.925Z,0.06
2023-03-05T02:25:29.871Z,0.06
2023-03-05T02:30:32.318Z,0.03
2023-03-05T02:35:34.200Z,0.00
2023-03-05T02:40:37.691Z,-0.04
2023-03-05T02:45:39.819Z,-0.04
2023-03-05T02:50:42.682Z,-0.13
2023-03-05T02:55:47.657Z,-0.29
2023-03-05T03:00:50.084Z,-0.37
2023-03-05T03:05:52.055Z,-0.32
2023-03-05T03:10:56.475Z,-0.29
2023-03-05T03:16:06.924Z,-0.28
2023-03-05T03:21:09.098Z,-0.22
2023-03-05T03:26:10.880Z,-0.26
2023-03-05T03:31:13.473Z,-0.31
2023-03-05T03:36:15.349Z,-0.37
2023-03-05T03:41:17.320Z,-0.35
2023-03-05T03:46:19.168Z,-0.27
2023-03-05T03:51:21.052Z,-0.30
2023-03-05T03:56:22.974Z,-0.26
2023-03-05T04:01:24.869Z,-0.22
2023-03-05T04:06:26.904Z,-0.22
2023-03-05T04:11:28.713Z,-0.26
2023-03-05T04:16:30.543Z,-0.27
2023-03-05T04:21:32.445Z,-0.22
2023-03-05T04:26:34.662Z,-0.20
2023-03-05T04:31:36.735Z,-0.12
2023-03-05T04:36:38.590Z,-0.10
2023-03-05T04:41:40.433Z,-0.09
2023-03-05T04:46:42.335Z,-0.02
2023-03-05T04:51:44.201Z,-0.01
2023-03-05T04:56:46.020Z,-0.03
2023-03-05T05:01:47.930Z,-0.05
2023-03-05T05:06:49.845Z,-0.06
2023-03-05T05:11:51.747Z,-0.11
2023-03-05T05:16:53.535Z,-0.14
2023-03-05T05:21:55.483Z,-0.15
2023-03-05T05:26:57.316Z,-0.15
2023-03-05T05:31:59.165Z,-0.17
2023-03-05T05:37:00.967Z,-0.14
2023-03-05T05:42:03.329Z,-0.09
2023-03-05T05:47:05.225Z,-0.08
2023-03-05T05:52:07.109Z,-0.13
2023-03-05T05:57:08.984Z,-0.10
2023-03-05T06:02:11.379Z,-0.04
2023-03-05T06:07:13.285Z,-0.02
2023-03-05T06:12:15.349Z,-0.05
2023-03-05T06:17:28.719Z,-0.03
2023-03-05T06:22:31.934Z,-0.09
2023-03-05T06:27:37.369Z,-0.12
2023-03-05T06:32:39.269Z,-0.14
2023-03-05T06:37:41.258Z,-0.19
2023-03-05T06:42:43.046Z,-0.17
2023-03-05T06:47:44.894Z,-0.16
2023-03-05T06:52:49.542Z,-0.17
2023-03-05T06:57:51.413Z,-0.13
2023-03-05T07:02:53.210Z,0.01
2023-03-05T07:07:55.048Z,0.13
2023-03-05T07:12:56.988Z,0.15
2023-03-05T07:17:58.844Z,0.31
2023-03-05T07:23:00.637Z,0.27
2023-03-05T07:28:05.431Z,0.33
2023-03-05T07:33:07.265Z,0.37
2023-03-05T07:38:09.086Z,0.37
2023-03-05T07:43:10.981Z,0.58
2023-03-05T07:48:16.905Z,0.58
2023-03-05T07:53:18.715Z,0.45
2023-03-05T07:58:20.589Z,0.49
2023-03-05T08:03:22.488Z,0.60
2023-03-05T08:08:24.279Z,0.85
2023-03-05T08:13:26.077Z,1.00
2023-03-05T08:18:27.947Z,1.11
2023-03-05T08:23:30.481Z,1.37
2023-03-05T08:28:34.355Z,1.53
2023-03-05T08:33:37.144Z,1.30
2023-03-05T08:38:39.021Z,1.17
2023-03-05T08:43:40.879Z,1.17
2023-03-05T08:48:43.125Z,1.32
2023-03-05T08:53:46.500Z,1.71
2023-03-05T08:58:48.444Z,1.64
2023-03-05T09:03:50.508Z,1.73
2023-03-05T09:08:52.656Z,1.99
2023-03-05T09:13:54.458Z,2.03
2023-03-05T09:18:56.335Z,1.92
2023-03-05T09:24:00.613Z,1.54
2023-03-05T09:29:02.535Z,1.26
2023-03-05T09:34:05.804Z,1.07
2023-03-05T09:39:07.750Z,0.75
2023-03-05T09:44:23.496Z,0.98
2023-03-05T09:49:49.386Z,1.65
2023-03-05T09:54:57.155Z,1.41
2023-03-05T10:00:08.906Z,1.12
2023-03-05T10:05:20.362Z,0.83
2023-03-05T10:10:39.432Z,0.69
2023-03-05T10:15:51.941Z,0.63
2023-03-05T10:21:32.678Z,1.21
2023-03-05T10:26:46.431Z,1.20
2023-03-05T10:32:06.733Z,1.12
2023-03-05T10:37:29.804Z,0.54
2023-03-05T10:42:49.590Z,0.95
2023-03-05T10:48:02.413Z,1.16
2023-03-05T10:53:36.763Z,0.99
2023-03-05T10:58:40.839Z,1.44
2023-03-05T11:03:50.055Z,1.36
2023-03-05T11:08:51.886Z,1.69
2023-03-05T11:14:03.796Z,2.48
2023-03-05T11:19:19.694Z,2.56
2023-03-05T11:24:21.629Z,3.29
2023-03-05T11:29:25.175Z,3.06
2023-03-05T11:34:35.422Z,2.55
2023-03-05T11:39:38.461Z,2.80
2023-03-05T11:44:43.125Z,2.74
2023-03-05T11:49:52.368Z,2.60
2023-03-05T11:55:45.916Z,2.53
2023-03-05T12:00:48.776Z,2.12
2023-03-05T12:06:14.841Z,1.99
2023-03-05T12:11:33.472Z,2.26
2023-03-05T12:16:45.235Z,1.96
2023-03-05T12:21:50.986Z,2.24
2023-03-05T12:27:04.954Z,2.48
2023-03-05T12:32:35.266Z,2.48
2023-03-05T12:37:43.075Z,2.38
2023-03-05T12:42:46.866Z,2.16
2023-03-05T12:48:12.697Z,1.99
2023-03-05T12:53:18.296Z,1.95
2023-03-05T12:58:34.635Z,1.86
2023-03-05T13:03:50.615Z,1.86
2023-03-05T13:09:08.351Z,1.58
2023-03-05T13:14:27.774Z,1.69
2023-03-05T13:19:31.326Z,1.81
2023-03-05T13:24:33.178Z,2.12
2023-03-05T13:29:34.964Z,2.43
2023-03-05T13:34:47.200Z,2.25
2023-03-05T13:39:53.165Z,2.24
2023-03-05T13:45:00.813Z,2.30
2023-03-05T13:50:22.101Z,2.44
2023-03-05T13:55:24.056Z,2.26
2023-03-05T14:00:36.181Z,2.08
2023-03-05T14:05:43.672Z,1.95
2023-03-05T14:10:45.554Z,2.40
2023-03-05T14:16:08.240Z,2.55
2023-03-05T14:21:11.655Z,2.42
2023-03-05T14:26:28.630Z,2.25
2023-03-05T14:31:37.046Z,2.08
2023-03-05T14:36:40.292Z,2.04
2023-03-05T14:41:42.665Z,2.31
2023-03-05T14:46:49.377Z,2.20
2023-03-05T14:51:51.195Z,2.31
2023-03-05T14:56:53.225Z,2.44
2023-03-05T15:01:55.004Z,2.34
2023-03-05T15:06:56.833Z,2.37
2023-03-05T15:11:58.657Z,2.25
2023-03-05T15:17:00.466Z,2.06
2023-03-05T15:22:02.547Z,1.80
2023-03-05T15:27:05.830Z,1.68
2023-03-05T15:32:08.099Z,1.57
2023-03-05T15:37:10.262Z,1.51
2023-03-05T15:42:12.041Z,1.56
2023-03-05T15:47:13.957Z,1.49
2023-03-05T15:52:15.897Z,1.52
2023-03-05T15:57:22.580Z,1.46
2023-03-05T16:02:25.189Z,1.48
2023-03-05T16:07:27.437Z,1.48
2023-03-05T16:12:33.349Z,1.48
2023-03-05T16:17:36.482Z,1.39
2023-03-05T16:22:38.586Z,1.35
2023-03-05T16:27:40.424Z,1.38
2023-03-05T16:32:42.726Z,1.37
2023-03-05T16:37:44.584Z,1.34
2023-03-05T16:42:46.389Z,1.34
2023-03-05T16:47:48.212Z,1.33
2023-03-05T16:52:50.087Z,1.34
2023-03-05T16:57:51.915Z,1.33
2023-03-05T17:02:53.724Z,1.34
2023-03-05T17:07:55.748Z,1.35
2023-03-05T17:12:57.737Z,1.38
2023-03-05T17:18:00.147Z,1.35
2023-03-05T17:23:02.454Z,1.31
2023-03-05T17:28:04.458Z,1.29
2023-03-05T17:33:08.272Z,1.20
2023-03-05T17:38:10.969Z,1.14
2023-03-05T17:43:12.851Z,1.15
2023-03-05T17:48:16.030Z,1.18
2023-03-05T17:53:17.851Z,1.22
2023-03-05T17:58:19.671Z,1.23
2023-03-05T18:03:21.510Z,1.22
2023-03-05T18:08:23.169Z,1.22
2023-03-05T18:13:24.885Z,1.20
2023-03-05T18:18:26.737Z,1.13
2023-03-05T18:23:28.347Z,1.04
2023-03-05T18:28:30.020Z,1.02
2023-03-05T18:33:32.775Z,1.04
2023-03-05T18:38:35.012Z,1.02
2023-03-05T18:43:36.732Z,1.03
2023-03-05T18:48:38.411Z,1.02
2023-03-05T18:53:40.100Z,1.05
2023-03-05T18:58:41.802Z,1.01
2023-03-05T19:03:44.564Z,1.03
2023-03-05T19:08:46.855Z,1.03
2023-03-05T19:13:50.481Z,0.92
2023-03-05T19:19:16.468Z,0.83
2023-03-05T19:24:18.281Z,0.81
2023-03-05T19:29:19.959Z,0.79
2023-03-05T19:34:21.851Z,0.80
2023-03-05T19:39:23.793Z,0.85
2023-03-05T19:44:26.161Z,0.86
2023-03-05T19:49:30.043Z,0.92
2023-03-05T19:54:31.963Z,0.91
2023-03-05T19:59:33.595Z,0.86
2023-03-05T20:04:35.248Z,0.68
2023-03-05T20:09:36.921Z,0.51
2023-03-05T20:14:38.640Z,0.43
2023-03-05T20:19:40.335Z,0.34
2023-03-05T20:24:41.992Z,0.30
2023-03-05T20:29:43.647Z,0.21
2023-03-05T20:34:45.268Z,0.16
2023-03-05T20:39:46.899Z,0.13
2023-03-05T20:44:48.565Z,0.11
2023-03-05T20:49:54.411Z,0.04
2023-03-05T20:54:56.067Z,-0.02
2023-03-05T20:59:57.792Z,-0.12
2023-03-05T21:04:59.409Z,-0.21
2023-03-05T21:10:01.023Z,-0.34
2023-03-05T21:15:04.190Z,-0.39
2023-03-05T21:20:07.123Z,-0.25
2023-03-05T21:25:23.000Z,-0.22
2023-03-05T21:30:37.974Z,-0.14
2023-03-05T21:35:40.324Z,-0.22
2023-03-05T21:40:45.462Z,-0.30
2023-03-05T21:45:48.064Z,-0.37
2023-03-05T21:50:51.106Z,-0.42
2023-03-05T21:56:22.044Z,-0.58
2023-03-05T22:01:23.745Z,-0.55
2023-03-05T22:06:25.657Z,-0.50
2023-03-05T22:11:27.374Z,-0.50
2023-03-05T22:16:29.265Z,-0.55
2023-03-05T22:21:31.934Z,-0.52
2023-03-05T22:26:36.127Z,-0.44
2023-03-05T22:31:38.824Z,-0.42
2023-03-05T22:36:40.505Z,-0.30
2023-03-05T22:41:42.686Z,-0.26
2023-03-05T22:46:44.443Z,-0.21
2023-03-05T22:51:46.192Z,-0.18
2023-03-05T22:56:47.901Z,-0.15
2023-03-05T23:01:49.582Z,-0.15
2023-03-05T23:06:51.174Z,-0.18
2023-03-05T23:11:52.798Z,-0.16
2023-03-05T23:16:54.426Z,-0.10
2023-03-05T23:21:56.109Z,-0.04
2023-03-05T23:26:57.849Z,-0.03
2023-03-05T23:31:59.500Z,-0.11
2023-03-05T23:37:01.167Z,-0.04
2023-03-05T23:42:02.755Z,0.15
2023-03-05T23:47:04.549Z,0.20
2023-03-05T23:52:08.174Z,0.19
2023-03-05T23:57:09.782Z,0.22
